Zionville, NC (28698)

8:16 PM EDT on July 07, 2015 (GMT -0400)
Trade | | Change Station
CLOSE
Current Station
Personal Weather Station
Location: Trade, TN
Elevation: 3143 ft
Nearby Weather Stations

Elev 3143 ft 36.38 °N, 81.75 °W | Updated 1 minute ago

Partly Cloudy
Partly Cloudy
73.6 °F
Feels Like 76 °F
N
2.5
Wind Variable Wind from SW
Gusts 6.3 mph

Today
High -- | Low -- °F
--% Chance of Precip.
Yesterday
High -- | Low -- °F
Precip. -- in
6:15 AM 8:47 PM
Waning Gibbous, 60% visible
Pressure 30.22 in
Visibility 10.0 miles
Clouds Clear
Heat Index 76 °F
Dew Point 61 °F
Humidity 63%
Rainfall 0.00 in
Snow Depth Not available.
UV 0 out of 12
Pollen 3.30 out of 12
Air Quality Not available.
Flu Activity Not available.
METAR KTNB 072355Z AUTO 00000KT 10SM CLR 24/17 A3022 RMK AO2 T02420166 10268 20241

More Conditions Fewer Conditions

Pressure 30.22 in
Visibility 10.0 miles
Clouds Clear
Heat Index 76 °F
Dew Point 61 °F
Humidity 63%
Rainfall 0.00 in
Snow Depth Not available.
UV 0 out of 12
Pollen 3.30 out of 12
Air Quality Not available.
Flu Activity Not available.
METAR KTNB 072355Z AUTO 00000KT 10SM CLR 24/17 A3022 RMK AO2 T02420166 10268 20241

More Conditions Fewer Conditions

10-Day Weather Forecast

×

Almanac

Astronomy

Jul. 07, 2015 Rise Set
Actual Time
Civil Twilight
Nautical Twilight
Astronomical Twilight
Moon
Length of Visible Light
Length of Day
Tomorrow will be .
, % of the Moon is Illuminated

Today's Extremes

State Highs State Lows

Community

WunderPhotos

Upload Photos

1,835,970 photos uploaded!

WunderBlogs® & News

Nearby

Air Quality

  Air Quality AQ Index Pollutant
Not available.

Snow Depth

Station Depth Elevation

Earthquake Activity

City Distance Mag. Time & Date
Minimum magnitude displayed is 2.5.

Coastal Water Temperatures

Place Temperature

Stations

Nearby Weather Stations

Station Location Temp. Windchill Dew Point Humidity Wind Precip. Elev Updated Type